createdAt,value
2022-11-29T00:01:06.171Z,97.50
2022-11-29T00:05:08.325Z,97.40
2022-11-29T00:09:13.256Z,97.70
2022-11-29T00:13:15.526Z,97.70
2022-11-29T00:17:17.338Z,97.00
2022-11-29T00:21:19.260Z,97.10
2022-11-29T00:25:21.105Z,96.80
2022-11-29T00:29:22.961Z,97.30
2022-11-29T00:33:24.884Z,97.60
2022-11-29T00:37:26.761Z,97.80
2022-11-29T00:41:28.546Z,97.70
2022-11-29T00:45:30.377Z,97.70
2022-11-29T00:49:32.215Z,97.60
2022-11-29T00:53:35.157Z,97.90
2022-11-29T00:57:36.976Z,97.30
2022-11-29T01:01:38.893Z,97.70
2022-11-29T01:05:41.445Z,97.70
2022-11-29T01:09:43.284Z,97.20
2022-11-29T01:13:45.422Z,96.40
2022-11-29T01:17:49.154Z,97.30
2022-11-29T01:21:50.980Z,96.40
2022-11-29T01:26:03.062Z,96.10
2022-11-29T01:30:09.548Z,96.10
2022-11-29T01:34:11.487Z,96.70
2022-11-29T01:38:13.285Z,97.10
2022-11-29T01:42:15.696Z,97.10
2022-11-29T01:46:17.533Z,97.30
2022-11-29T01:50:20.179Z,97.40
2022-11-29T01:54:22.337Z,98.20
2022-11-29T01:58:24.362Z,98.90
2022-11-29T02:02:55.623Z,99.20
2022-11-29T02:06:57.565Z,99.00
2022-11-29T02:11:15.490Z,98.60
2022-11-29T02:15:33.979Z,97.90
2022-11-29T02:19:47.521Z,97.70
2022-11-29T02:24:11.225Z,97.80
2022-11-29T02:28:31.370Z,98.30
2022-11-29T02:33:10.570Z,97.60
2022-11-29T02:37:17.592Z,98.40
2022-11-29T02:41:38.014Z,98.30
2022-11-29T02:46:08.368Z,98.50
2022-11-29T02:50:17.156Z,98.60
2022-11-29T02:54:24.195Z,98.80
2022-11-29T02:58:27.862Z,99.10
2022-11-29T03:02:42.727Z,99.10
2022-11-29T03:07:10.496Z,99.90
2022-11-29T03:11:35.276Z,99.90
2022-11-29T03:15:56.806Z,99.90
2022-11-29T03:20:17.473Z,99.90
2022-11-29T03:24:25.924Z,99.90
2022-11-29T03:28:53.313Z,99.90
2022-11-29T03:33:30.352Z,99.90
2022-11-29T03:37:44.138Z,99.90
2022-11-29T03:41:55.319Z,99.90
2022-11-29T03:46:08.767Z,99.90
2022-11-29T03:50:13.408Z,99.90
2022-11-29T03:54:43.279Z,99.90
2022-11-29T03:59:07.258Z,99.90
2022-11-29T04:03:28.596Z,99.90
2022-11-29T04:07:42.719Z,99.90
2022-11-29T04:12:08.810Z,99.90
2022-11-29T04:16:26.031Z,99.90
2022-11-29T04:20:51.863Z,99.90
2022-11-29T04:25:05.337Z,99.90
2022-11-29T04:29:34.343Z,99.90
2022-11-29T04:33:54.619Z,99.90
2022-11-29T04:37:59.422Z,99.90
2022-11-29T04:42:09.943Z,99.90
2022-11-29T04:46:22.704Z,99.90
2022-11-29T04:50:43.348Z,99.90
2022-11-29T04:55:08.514Z,99.90
2022-11-29T04:59:28.990Z,99.90
2022-11-29T05:04:06.161Z,99.90
2022-11-29T05:08:25.287Z,99.90
2022-11-29T05:12:34.523Z,99.90
2022-11-29T05:16:45.033Z,99.90
2022-11-29T05:21:10.594Z,99.90
2022-11-29T05:25:41.389Z,99.90
2022-11-29T05:30:07.366Z,99.90
2022-11-29T05:34:21.397Z,99.90
2022-11-29T05:38:45.371Z,99.90
2022-11-29T05:43:11.735Z,99.90
2022-11-29T05:47:23.111Z,99.90
2022-11-29T05:52:05.749Z,99.90
2022-11-29T05:56:18.284Z,99.90
2022-11-29T06:00:20.674Z,99.90
2022-11-29T06:04:33.336Z,99.90
2022-11-29T06:08:57.323Z,99.90
2022-11-29T06:13:13.834Z,99.90
2022-11-29T06:17:38.868Z,99.90
2022-11-29T06:22:00.076Z,99.90
2022-11-29T06:26:36.582Z,99.90
2022-11-29T06:30:53.518Z,99.90
2022-11-29T06:35:08.116Z,99.90
2022-11-29T06:39:10.619Z,99.90
2022-11-29T06:43:12.773Z,99.90
2022-11-29T06:47:19.801Z,99.90
2022-11-29T06:51:49.499Z,99.90
2022-11-29T06:56:28.770Z,99.90
2022-11-29T07:01:11.583Z,99.90
2022-11-29T07:05:24.440Z,99.90
2022-11-29T07:09:32.068Z,99.90
2022-11-29T07:13:34.181Z,99.90
2022-11-29T07:17:58.991Z,99.90
2022-11-29T07:22:22.535Z,99.90
2022-11-29T07:26:39.797Z,99.90
2022-11-29T07:30:59.595Z,99.90
2022-11-29T07:35:28.600Z,99.90
2022-11-29T07:39:56.066Z,99.90
2022-11-29T07:44:21.371Z,99.90
2022-11-29T07:48:23.591Z,99.90
2022-11-29T07:52:25.494Z,99.90
2022-11-29T07:56:27.334Z,99.90
2022-11-29T08:00:29.191Z,99.90
2022-11-29T08:04:31.112Z,99.90
2022-11-29T08:08:32.957Z,99.90
2022-11-29T08:12:35.050Z,99.90
2022-11-29T08:16:37.137Z,99.90
2022-11-29T08:20:40.554Z,99.90
2022-11-29T08:24:42.537Z,99.90
2022-11-29T08:28:44.903Z,99.90
2022-11-29T08:32:51.217Z,99.90
2022-11-29T08:36:55.786Z,99.90
2022-11-29T08:41:02.363Z,99.90
2022-11-29T08:45:04.789Z,99.90
2022-11-29T08:49:06.623Z,99.90
2022-11-29T08:53:27.603Z,99.90
2022-11-29T08:57:39.833Z,99.90
2022-11-29T09:01:42.491Z,99.90
2022-11-29T09:05:44.450Z,99.90
2022-11-29T09:09:46.252Z,99.90
2022-11-29T09:13:50.460Z,99.90
2022-11-29T09:17:52.653Z,99.90
2022-11-29T09:21:54.687Z,99.90
2022-11-29T09:25:56.578Z,99.90
2022-11-29T09:29:58.402Z,99.90
2022-11-29T09:34:00.527Z,99.90
2022-11-29T09:38:02.396Z,99.90
2022-11-29T09:42:22.986Z,99.90
2022-11-29T09:46:42.093Z,99.90
2022-11-29T09:51:24.331Z,99.90
2022-11-29T09:55:57.757Z,99.90
2022-11-29T10:00:04.942Z,99.90
2022-11-29T10:04:19.242Z,99.90
2022-11-29T10:08:39.518Z,99.90
2022-11-29T10:12:56.569Z,99.90
2022-11-29T10:17:14.122Z,99.90
2022-11-29T10:21:23.358Z,99.90
2022-11-29T10:25:31.140Z,99.90
2022-11-29T10:29:33.479Z,99.90
2022-11-29T10:33:39.734Z,99.20
2022-11-29T10:37:41.994Z,99.30
2022-11-29T10:41:43.891Z,99.00
2022-11-29T10:45:54.371Z,99.10
2022-11-29T10:49:56.931Z,99.40
2022-11-29T10:54:20.612Z,99.90
2022-11-29T10:58:29.047Z,99.90
2022-11-29T11:02:31.932Z,99.90
2022-11-29T11:06:52.295Z,99.90
2022-11-29T11:11:01.278Z,99.90
2022-11-29T11:15:15.120Z,99.90
2022-11-29T11:19:35.382Z,99.90
2022-11-29T11:23:59.378Z,99.90
2022-11-29T11:28:21.325Z,99.90
2022-11-29T11:32:23.409Z,99.90
2022-11-29T11:36:27.574Z,99.90
2022-11-29T11:40:30.805Z,99.90
2022-11-29T11:45:02.659Z,99.90
2022-11-29T11:49:13.384Z,99.90
2022-11-29T11:53:47.074Z,99.90
2022-11-29T11:58:10.549Z,99.90
2022-11-29T12:02:48.368Z,99.90
2022-11-29T12:06:51.206Z,99.90
2022-11-29T12:10:56.795Z,99.90
2022-11-29T12:15:21.623Z,99.90
2022-11-29T12:19:28.431Z,99.90
2022-11-29T12:23:39.390Z,99.90
2022-11-29T12:27:41.215Z,99.90
2022-11-29T12:31:49.169Z,99.90
2022-11-29T12:36:06.216Z,99.90
2022-11-29T12:40:28.300Z,99.90
2022-11-29T12:44:34.827Z,99.90
2022-11-29T12:48:51.607Z,99.90
2022-11-29T12:53:14.296Z,99.90
2022-11-29T12:57:31.285Z,99.90
2022-11-29T13:02:15.148Z,99.90
2022-11-29T13:06:33.542Z,99.90
2022-11-29T13:11:08.441Z,99.90
2022-11-29T13:15:21.523Z,99.90
2022-11-29T13:19:29.305Z,99.90
2022-11-29T13:28:16.325Z,99.90
2022-11-29T13:32:39.870Z,99.90
2022-11-29T13:36:57.179Z,99.90
2022-11-29T13:41:25.260Z,99.80
2022-11-29T13:45:38.913Z,98.60
2022-11-29T13:49:59.993Z,98.60
2022-11-29T13:54:05.506Z,98.50
2022-11-29T13:58:23.310Z,98.70
2022-11-29T14:02:30.741Z,98.50
2022-11-29T14:06:35.621Z,97.80
2022-11-29T14:10:38.372Z,98.30
2022-11-29T14:15:07.740Z,99.00
2022-11-29T14:19:09.957Z,98.80
2022-11-29T14:23:18.228Z,98.30
2022-11-29T14:27:19.969Z,98.20
2022-11-29T14:31:48.504Z,97.80
2022-11-29T14:36:06.675Z,96.90
2022-11-29T14:40:21.290Z,97.10
2022-11-29T14:44:29.148Z,98.40
2022-11-29T14:48:32.854Z,99.90
2022-11-29T14:52:39.946Z,99.90
2022-11-29T14:56:46.574Z,99.90
2022-11-29T15:00:48.360Z,99.90
2022-11-29T15:04:52.970Z,99.90
2022-11-29T15:09:02.648Z,99.90
2022-11-29T15:13:04.974Z,99.90
2022-11-29T15:17:37.830Z,99.90
2022-11-29T15:22:09.843Z,99.90
2022-11-29T15:26:20.889Z,99.90
2022-11-29T15:30:29.188Z,99.90
2022-11-29T15:34:36.978Z,99.90
2022-11-29T15:38:47.886Z,99.90
2022-11-29T15:42:58.015Z,99.90
2022-11-29T15:47:35.095Z,99.90
2022-11-29T15:51:38.368Z,99.90
2022-11-29T15:55:40.361Z,99.90
2022-11-29T15:59:51.136Z,99.90
2022-11-29T16:03:57.119Z,99.90
2022-11-29T16:08:03.734Z,99.90
2022-11-29T16:12:14.544Z,99.90
2022-11-29T16:16:21.985Z,99.90
2022-11-29T16:20:25.612Z,99.90
2022-11-29T16:24:27.537Z,99.90
2022-11-29T16:28:36.278Z,99.90
2022-11-29T16:32:43.283Z,99.90
2022-11-29T16:36:45.194Z,99.90
2022-11-29T16:41:08.538Z,99.90
2022-11-29T16:45:29.298Z,99.90
2022-11-29T16:49:31.665Z,99.90
2022-11-29T16:53:38.686Z,99.90
2022-11-29T16:57:40.822Z,99.90
2022-11-29T17:01:42.791Z,99.90
2022-11-29T17:05:45.060Z,99.90
2022-11-29T17:09:46.990Z,99.90
2022-11-29T17:13:50.373Z,99.90
2022-11-29T17:17:52.237Z,99.90
2022-11-29T17:21:54.092Z,99.90
2022-11-29T17:26:00.583Z,99.90
2022-11-29T17:30:03.551Z,99.90
2022-11-29T17:34:06.380Z,99.90
2022-11-29T17:38:08.232Z,99.90
2022-11-29T17:42:12.118Z,99.90
2022-11-29T17:46:16.762Z,99.90
2022-11-29T17:50:18.896Z,99.90
2022-11-29T17:54:21.734Z,99.90
2022-11-29T17:58:24.391Z,99.90
2022-11-29T18:02:26.286Z,99.90
2022-11-29T18:06:30.959Z,99.90
2022-11-29T18:10:32.792Z,99.90
2022-11-29T18:14:36.298Z,99.90
2022-11-29T18:18:39.188Z,99.90
2022-11-29T18:22:41.011Z,99.90
2022-11-29T18:26:43.068Z,99.90
2022-11-29T18:30:44.964Z,99.90
2022-11-29T18:34:47.133Z,99.90
2022-11-29T18:38:54.163Z,99.90
2022-11-29T18:42:56.139Z,99.90
2022-11-29T18:46:58.220Z,99.90
2022-11-29T18:51:09.510Z,99.90
2022-11-29T18:55:11.307Z,99.90
2022-11-29T18:59:17.050Z,99.90
2022-11-29T19:03:19.237Z,99.90
2022-11-29T19:07:21.152Z,99.90
2022-11-29T19:11:25.601Z,99.90
2022-11-29T19:15:27.416Z,99.90
2022-11-29T19:19:29.250Z,99.90
2022-11-29T19:23:31.112Z,99.90
2022-11-29T19:27:32.954Z,99.90
2022-11-29T19:31:34.791Z,99.90
2022-11-29T19:35:36.626Z,99.90
2022-11-29T19:39:38.958Z,99.90
2022-11-29T19:43:40.855Z,99.90
2022-11-29T19:47:42.878Z,99.90
2022-11-29T19:51:45.064Z,99.90
2022-11-29T19:55:46.889Z,99.90
2022-11-29T19:59:48.806Z,99.90
2022-11-29T20:03:52.078Z,99.90
2022-11-29T20:07:54.016Z,99.90
2022-11-29T20:11:55.868Z,99.90
2022-11-29T20:16:09.863Z,99.90
2022-11-29T20:20:12.654Z,99.90
2022-11-29T20:24:16.210Z,99.90
2022-11-29T20:28:17.992Z,99.90
2022-11-29T20:32:19.963Z,99.90
2022-11-29T20:37:08.010Z,99.90
2022-11-29T20:41:27.253Z,99.90
2022-11-29T20:45:29.538Z,99.90
2022-11-29T20:49:31.527Z,99.90
2022-11-29T20:53:44.316Z,99.90
2022-11-29T20:57:46.248Z,99.90
2022-11-29T21:01:48.120Z,99.90
2022-11-29T21:05:50.494Z,99.90
2022-11-29T21:09:54.402Z,99.90
2022-11-29T21:14:03.872Z,99.90
2022-11-29T21:18:06.076Z,99.90
2022-11-29T21:22:36.791Z,99.90
2022-11-29T21:26:44.193Z,99.90
2022-11-29T21:30:46.299Z,99.90
2022-11-29T21:34:48.575Z,99.90
2022-11-29T21:38:54.918Z,99.90
2022-11-29T21:42:57.273Z,99.90
2022-11-29T21:46:59.111Z,99.90
2022-11-29T21:51:08.192Z,99.90
2022-11-29T21:55:10.397Z,99.90
2022-11-29T21:59:12.213Z,99.90
2022-11-29T22:03:14.312Z,99.90
2022-11-29T22:07:16.473Z,99.90
2022-11-29T22:11:30.775Z,99.90
2022-11-29T22:15:33.281Z,99.90
2022-11-29T22:19:36.442Z,99.90
2022-11-29T22:23:38.277Z,99.90
2022-11-29T22:27:40.257Z,99.90
2022-11-29T22:31:43.755Z,99.90
2022-11-29T22:35:45.782Z,99.90
2022-11-29T22:39:47.653Z,99.90
2022-11-29T22:43:49.498Z,99.90
2022-11-29T22:47:51.320Z,99.90
2022-11-29T22:51:53.561Z,99.90
2022-11-29T22:56:03.055Z,99.90
2022-11-29T23:00:05.654Z,99.90
2022-11-29T23:04:08.819Z,99.90
2022-11-29T23:08:10.645Z,99.90
2022-11-29T23:12:12.516Z,99.90
2022-11-29T23:16:16.922Z,99.90
2022-11-29T23:20:18.809Z,99.90
2022-11-29T23:24:20.646Z,99.90
2022-11-29T23:28:23.117Z,99.90
2022-11-29T23:32:25.087Z,99.90
2022-11-29T23:36:26.933Z,99.90
2022-11-29T23:40:28.779Z,99.90
2022-11-29T23:44:30.627Z,99.90
2022-11-29T23:48:32.511Z,99.90
2022-11-29T23:52:34.376Z,99.90
2022-11-29T23:56:36.205Z,99.90
